Time;durP1;ratioP1;P1;durP2;ratioP2;P2;SDS_P1;SDS_P2;PMS_P1;PMS_P2;Temp;Humidity;BMP_temperature;BMP_pressure;BME280_temperature;BME280_humidity;BME280_pressure;Samples;Min_cycle;Max_cycle;Signal;HPM_P1;HPM_P2
2023/06/22 00:00:12;;;;;;;8.88;5.55;;;;;;;21.43;76.82;101758.63;5029954;28;20050;-68
2023/06/22 00:02:40;;;;;;;9.05;5.30;;;;;;;21.48;76.90;101766.00;5018223;28;20038;-69
2023/06/22 00:05:08;;;;;;;8.93;5.68;;;;;;;21.57;76.58;101758.50;5025798;28;20052;-68
2023/06/22 00:07:35;;;;;;;9.98;4.85;;;;;;;21.62;76.38;101758.41;5037025;28;20493;-66
2023/06/22 00:10:03;;;;;;;10.30;5.32;;;;;;;21.68;76.00;101765.41;5036157;28;20045;-66
2023/06/22 00:12:32;;;;;;;8.40;5.13;;;;;;;21.67;76.64;101757.41;5069382;28;20139;-68
2023/06/22 00:15:00;;;;;;;10.30;5.63;;;;;;;21.50;77.71;101747.06;5036859;28;20034;-68
2023/06/22 00:17:27;;;;;;;10.55;5.03;;;;;;;21.35;79.00;101739.97;5049719;28;20509;-67
2023/06/22 00:19:56;;;;;;;10.18;5.50;;;;;;;21.36;78.99;101746.31;5037354;28;20045;-68
2023/06/22 00:22:27;;;;;;;10.68;5.65;;;;;;;21.36;79.27;101762.94;5038003;28;20132;-67
2023/06/22 00:24:56;;;;;;;11.40;5.40;;;;;;;21.40;79.43;101759.25;5038894;28;20452;-66
2023/06/22 00:27:24;;;;;;;8.50;5.38;;;;;;;21.42;79.99;101756.16;5018666;28;20072;-68
2023/06/22 00:29:52;;;;;;;10.20;6.22;;;;;;;21.47;79.73;101758.81;5048868;28;20045;-67
2023/06/22 00:32:19;;;;;;;10.38;5.28;;;;;;;21.43;80.25;101757.78;5016720;28;20138;-68
2023/06/22 00:34:48;;;;;;;11.10;6.15;;;;;;;21.48;80.22;101771.53;5048475;28;20057;-68
2023/06/22 00:37:15;;;;;;;14.18;6.20;;;;;;;21.47;80.58;101758.81;5025940;28;20069;-68
2023/06/22 00:39:44;;;;;;;10.75;6.03;;;;;;;21.45;80.96;101758.31;5032196;28;20445;-67
2023/06/22 00:42:11;;;;;;;11.93;6.70;;;;;;;21.40;81.26;101752.91;5034870;28;20157;-68
2023/06/22 00:44:40;;;;;;;9.52;5.70;;;;;;;21.39;81.63;101759.56;5036772;28;20047;-67
2023/06/22 00:47:08;;;;;;;11.45;6.50;;;;;;;21.33;82.26;101760.81;5034136;28;20064;-69
2023/06/22 00:49:35;;;;;;;12.63;6.47;;;;;;;21.26;82.75;101759.34;5035451;28;20053;-67
2023/06/22 00:52:03;;;;;;;11.70;6.07;;;;;;;21.26;83.09;101753.78;5036696;28;20099;-67
2023/06/22 00:54:31;;;;;;;11.40;6.22;;;;;;;21.24;83.25;101750.50;5040852;28;20116;-67
2023/06/22 00:57:00;;;;;;;12.52;6.32;;;;;;;21.25;83.36;101746.59;5031945;28;20154;-68
2023/06/22 00:59:28;;;;;;;10.35;6.43;;;;;;;21.29;83.17;101755.09;5036584;28;20049;-68
2023/06/22 01:01:56;;;;;;;12.32;6.68;;;;;;;21.26;83.55;101750.19;5036683;28;20073;-68
2023/06/22 01:04:35;;;;;;;10.68;6.85;;;;;;;21.23;83.36;101748.88;5051732;28;20050;-68
2023/06/22 01:07:23;;;;;;;11.13;7.57;;;;;;;21.18;83.86;101746.22;5016734;28;20046;-68
2023/06/22 01:10:16;;;;;;;10.40;7.15;;;;;;;21.15;84.35;101737.75;5023801;28;20076;-67
2023/06/22 01:12:48;;;;;;;10.90;7.03;;;;;;;21.10;84.70;101733.16;5018957;28;20045;-67
2023/06/22 01:15:23;;;;;;;10.38;6.70;;;;;;;21.09;84.93;101725.16;5034915;28;20132;-68
2023/06/22 01:17:52;;;;;;;10.73;6.47;;;;;;;21.06;85.30;101724.63;5022564;28;20069;-68
2023/06/22 01:20:22;;;;;;;10.60;6.68;;;;;;;21.07;85.30;101733.78;5033966;28;20466;-66
2023/06/22 01:23:12;;;;;;;11.23;7.13;;;;;;;21.12;84.61;101738.34;5034713;28;20470;-68
2023/06/22 01:25:59;;;;;;;10.80;7.03;;;;;;;21.08;84.66;101729.88;5036135;28;20461;-67
2023/06/22 01:28:47;;;;;;;13.35;7.30;;;;;;;21.03;85.07;101735.56;5018833;28;20054;-66
2023/06/22 01:31:18;;;;;;;13.10;6.72;;;;;;;20.99;85.74;101731.78;5037206;28;20045;-68
2023/06/22 01:33:59;;;;;;;12.18;7.18;;;;;;;20.96;85.89;101737.97;5024069;28;20128;-67
2023/06/22 01:36:27;;;;;;;9.90;6.55;;;;;;;20.94;86.04;101738.25;5029750;28;20076;-66
2023/06/22 01:38:56;;;;;;;11.38;6.90;;;;;;;20.92;86.12;101736.94;4997890;28;20046;-67
2023/06/22 01:41:26;;;;;;;9.77;6.50;;;;;;;20.89;86.04;101740.34;5016303;28;20198;-67
2023/06/22 01:43:55;;;;;;;9.98;5.88;;;;;;;20.93;86.22;101744.13;5014718;28;20038;-68
2023/06/22 01:46:23;;;;;;;9.82;6.20;;;;;;;20.93;85.98;101744.13;5015407;28;20100;-68
2023/06/22 01:48:51;;;;;;;10.85;6.80;;;;;;;20.93;85.78;101744.94;5034412;28;20042;-68
2023/06/22 01:51:19;;;;;;;10.70;6.78;;;;;;;20.88;86.27;101741.47;5017262;28;20049;-67
2023/06/22 01:53:47;;;;;;;9.77;6.45;;;;;;;20.82;86.49;101730.53;5033776;28;20045;-68
2023/06/22 01:56:18;;;;;;;9.23;5.68;;;;;;;20.80;86.73;101734.75;5034845;28;20061;-69
2023/06/22 01:58:57;;;;;;;11.00;7.40;;;;;;;20.80;86.71;101727.25;5031735;28;20045;-68
2023/06/22 02:01:28;;;;;;;11.32;7.38;;;;;;;20.72;86.96;101730.78;5034761;28;20053;-68
2023/06/22 02:04:10;;;;;;;10.13;6.68;;;;;;;20.68;87.73;101721.47;5033026;28;20113;-67
2023/06/22 02:06:43;;;;;;;10.88;7.35;;;;;;;20.61;87.82;101719.16;5018488;28;20049;-67
2023/06/22 02:09:16;;;;;;;11.32;7.38;;;;;;;20.47;88.61;101723.06;5033710;28;20119;-68
2023/06/22 02:11:45;;;;;;;10.40;6.20;;;;;;;20.39;89.42;101719.09;5043996;28;20058;-68
2023/06/22 02:14:14;;;;;;;9.65;6.80;;;;;;;20.39;89.45;101719.09;5011917;28;20046;-68
2023/06/22 02:16:45;;;;;;;10.32;6.63;;;;;;;20.52;89.10;101722.97;5014781;28;20050;-67
2023/06/22 02:19:15;;;;;;;11.25;7.25;;;;;;;20.55;88.50;101717.63;5013846;28;20132;-67
2023/06/22 02:21:43;;;;;;;11.25;6.90;;;;;;;20.57;88.18;101722.84;5013936;28;20052;-67
2023/06/22 02:24:10;;;;;;;11.25;6.97;;;;;;;20.54;88.68;101721.50;5024715;28;20088;-68
2023/06/22 02:26:42;;;;;;;12.60;7.32;;;;;;;20.55;88.43;101728.69;5034461;28;20045;-67
2023/06/22 02:29:10;;;;;;;10.93;7.28;;;;;;;20.54;88.46;101727.03;5033726;28;20441;-68
2023/06/22 02:31:41;;;;;;;11.77;8.52;;;;;;;20.49;88.84;101716.06;5033859;28;20049;-67
2023/06/22 02:34:08;;;;;;;10.75;7.20;;;;;;;20.39;89.30;101722.66;5033962;28;20053;-69
2023/06/22 02:36:36;;;;;;;12.25;7.80;;;;;;;20.36;89.36;101723.31;5029734;28;20070;-67
2023/06/22 02:39:04;;;;;;;10.57;7.22;;;;;;;20.37;89.68;101716.66;5014673;28;20498;-67
2023/06/22 02:41:32;;;;;;;12.93;7.72;;;;;;;20.39;89.17;101708.81;4997850;28;20425;-68
2023/06/22 02:43:59;;;;;;;12.32;7.57;;;;;;;20.39;89.47;101714.38;5020768;28;20125;-68
2023/06/22 02:46:27;;;;;;;10.38;7.00;;;;;;;20.36;89.69;101717.75;5034667;28;20111;-67
2023/06/22 02:48:55;;;;;;;11.15;7.47;;;;;;;20.33;89.79;101704.56;5031773;28;20474;-67
2023/06/22 02:51:22;;;;;;;10.70;7.50;;;;;;;20.29;90.04;101695.22;5034394;28;20056;-68
2023/06/22 02:53:57;;;;;;;12.57;8.10;;;;;;;20.17;90.26;101700.50;5035171;28;20512;-68
2023/06/22 02:56:28;;;;;;;12.05;8.15;;;;;;;20.11;90.94;101701.75;5032680;28;20038;-67
2023/06/22 02:59:01;;;;;;;10.55;7.72;;;;;;;20.15;90.88;101697.22;5049954;28;20563;-68
2023/06/22 03:01:39;;;;;;;13.82;8.45;;;;;;;20.14;90.44;101696.41;5033157;28;20073;-67
2023/06/22 03:04:16;;;;;;;12.50;7.78;;;;;;;20.04;91.12;101693.06;5012749;28;20564;-66
2023/06/22 03:06:43;;;;;;;11.15;7.53;;;;;;;19.99;91.33;101683.75;5047289;28;20057;-67
2023/06/22 03:09:11;;;;;;;11.95;7.57;;;;;;;19.91;91.88;101681.69;5015064;28;20050;-68
2023/06/22 03:11:39;;;;;;;12.88;7.90;;;;;;;19.86;92.29;101679.03;5013868;28;20054;-67
2023/06/22 03:14:08;;;;;;;13.52;8.18;;;;;;;19.87;92.26;101680.69;5015471;28;20103;-69
2023/06/22 03:16:36;;;;;;;12.05;7.18;;;;;;;19.93;91.84;101676.69;5057264;28;20099;-68
2023/06/22 03:19:04;;;;;;;10.88;7.15;;;;;;;20.02;91.34;101670.44;5038337;28;20060;-68
2023/06/22 03:21:32;;;;;;;10.40;7.15;;;;;;;20.10;91.09;101672.44;5037336;28;20052;-67
2023/06/22 03:24:00;;;;;;;14.13;7.95;;;;;;;20.07;90.48;101673.06;5045541;28;20045;-67
2023/06/22 03:26:29;;;;;;;12.48;7.72;;;;;;;20.00;91.53;101677.06;5034375;28;20053;-67
2023/06/22 03:28:57;;;;;;;12.60;7.93;;;;;;;20.02;91.07;101664.88;5020461;28;20061;-67
2023/06/22 03:31:25;;;;;;;10.15;7.32;;;;;;;19.97;91.49;101674.94;5027596;28;20046;-64
2023/06/22 03:33:53;;;;;;;12.88;7.53;;;;;;;19.99;91.84;101669.91;5044073;28;20057;-66
2023/06/22 03:36:23;;;;;;;13.52;8.45;;;;;;;19.97;91.50;101674.94;5020358;28;20060;-65
2023/06/22 03:38:51;;;;;;;13.00;7.80;;;;;;;19.84;92.42;101670.22;5038908;28;20050;-66
2023/06/22 03:41:19;;;;;;;13.55;8.27;;;;;;;19.78;93.19;101665.97;5030591;28;20049;-65
2023/06/22 03:43:48;;;;;;;11.25;7.40;;;;;;;19.73;93.75;101671.59;5046965;28;20045;-64
2023/06/22 03:46:16;;;;;;;11.13;7.75;;;;;;;19.82;93.45;101666.16;5039942;28;20041;-68
2023/06/22 03:48:44;;;;;;;11.18;7.80;;;;;;;19.82;93.03;101661.47;5036827;28;20500;-67
2023/06/22 03:51:12;;;;;;;11.02;8.35;;;;;;;19.83;93.08;101663.09;5038193;28;20517;-68
2023/06/22 03:53:39;;;;;;;13.00;8.65;;;;;;;19.75;93.13;101666.59;5034837;28;20047;-67
2023/06/22 03:56:07;;;;;;;11.77;8.70;;;;;;;19.70;93.82;101663.91;5037821;28;20049;-67
2023/06/22 03:58:36;;;;;;;12.00;8.43;;;;;;;19.75;94.03;101659.09;5026710;28;20056;-67
2023/06/22 04:01:04;;;;;;;10.43;7.65;;;;;;;19.75;93.17;101658.28;5017549;28;20058;-69
2023/06/22 04:03:31;;;;;;;12.77;8.07;;;;;;;19.76;93.01;101668.22;5031853;28;20085;-68
2023/06/22 04:05:59;;;;;;;12.80;8.48;;;;;;;19.75;93.40;101663.81;5036028;28;20053;-67
2023/06/22 04:08:27;;;;;;;11.82;8.60;;;;;;;19.71;94.03;101654.50;5036108;28;20041;-68
2023/06/22 04:10:54;;;;;;;13.75;9.18;;;;;;;19.66;94.10;101651.81;5037501;28;20053;-69
2023/06/22 04:13:22;;;;;;;13.65;8.77;;;;;;;19.49;95.51;101653.25;5037208;28;20045;-68
2023/06/22 04:15:50;;;;;;;11.63;9.07;;;;;;;19.47;96.26;101658.28;5036455;28;20095;-68
2023/06/22 04:18:17;;;;;;;12.75;8.98;;;;;;;19.55;96.25;101652.03;5033664;28;20059;-68
2023/06/22 04:20:46;;;;;;;15.60;9.35;;;;;;;19.65;96.13;101651.00;5037745;28;20537;-68
2023/06/22 04:23:14;;;;;;;13.88;8.15;;;;;;;19.66;95.70;101647.09;5037116;28;20125;-68
2023/06/22 04:25:42;;;;;;;11.65;8.00;;;;;;;19.72;95.65;101645.06;5036464;28;20124;-68
2023/06/22 04:28:12;;;;;;;14.15;9.18;;;;;;;19.74;95.75;101642.81;5033393;28;20132;-68
2023/06/22 04:30:46;;;;;;;13.32;9.48;;;;;;;19.69;96.08;101640.97;5034133;28;20154;-69
2023/06/22 04:33:17;;;;;;;16.10;9.70;;;;;;;19.62;96.81;101659.91;5036312;28;20041;-70
2023/06/22 04:35:47;;;;;;;15.02;9.35;;;;;;;19.53;97.57;101654.28;5037293;28;20037;-69
2023/06/22 04:38:15;;;;;;;11.63;8.88;;;;;;;19.55;97.88;101654.81;5034904;28;20092;-68
2023/06/22 04:40:43;;;;;;;16.58;8.95;;;;;;;19.63;98.17;101646.91;5036036;28;20129;-67
2023/06/22 04:43:11;;;;;;;13.38;8.68;;;;;;;19.72;97.42;101651.44;5017685;28;20038;-68
2023/06/22 04:45:38;;;;;;;14.98;8.98;;;;;;;19.76;96.93;101651.63;5017491;28;20117;-68
2023/06/22 04:48:06;;;;;;;16.85;9.15;;;;;;;19.81;96.81;101653.47;5016952;28;20076;-67
2023/06/22 04:50:34;;;;;;;13.02;9.18;;;;;;;19.77;96.99;101653.25;5022133;28;20069;-69
2023/06/22 04:53:05;;;;;;;16.52;10.02;;;;;;;19.76;97.55;101657.16;5036057;28;20049;-67
2023/06/22 04:55:33;;;;;;;15.30;9.50;;;;;;;19.80;97.48;101652.66;5022358;28;20044;-68
2023/06/22 04:58:04;;;;;;;13.10;9.07;;;;;;;19.80;97.42;101663.72;5017225;28;20054;-68
2023/06/22 05:00:35;;;;;;;14.10;9.80;;;;;;;19.86;97.36;101656.91;5017744;28;20057;-68
2023/06/22 05:03:06;;;;;;;17.35;10.80;;;;;;;19.90;97.06;101655.19;5017346;28;20049;-67
2023/06/22 05:05:47;;;;;;;14.55;9.88;;;;;;;19.80;97.84;101663.72;5027751;28;20121;-69
2023/06/22 05:08:14;;;;;;;15.68;10.10;;;;;;;19.82;98.14;101664.22;4333373;28;9999940;-71
2023/06/22 05:10:42;;;;;;;16.55;10.00;;;;;;;19.78;98.51;101660.44;5017449;28;20933;-65
2023/06/22 05:13:26;;;;;;;15.57;10.38;;;;;;;19.75;99.19;101656.34;5019275;28;20121;-64
2023/06/22 05:16:01;;;;;;;16.40;10.48;;;;;;;19.82;99.23;101650.41;5028171;28;20045;-64
2023/06/22 05:18:30;;;;;;;17.45;9.38;;;;;;;19.88;98.85;101656.63;5031678;28;20049;-63
2023/06/22 05:21:00;;;;;;;16.88;11.43;;;;;;;19.90;99.09;101663.47;5025596;28;20557;-65
2023/06/22 05:23:28;;;;;;;13.93;9.98;;;;;;;19.84;99.11;101659.16;5017364;28;20050;-64
2023/06/22 05:25:57;;;;;;;16.63;10.65;;;;;;;19.75;99.87;101661.06;5011885;28;20046;-63
2023/06/22 05:28:25;;;;;;;14.48;11.63;;;;;;;19.75;100.00;101661.06;5026976;28;20383;-66
2023/06/22 05:30:53;;;;;;;16.02;11.40;;;;;;;19.75;100.00;101655.53;5020016;28;20103;-63
2023/06/22 05:33:21;;;;;;;12.60;8.02;;;;;;;19.85;100.00;101655.28;5027137;28;20060;-65
2023/06/22 05:35:49;;;;;;;18.17;9.38;;;;;;;20.02;99.14;101662.13;5031055;28;20433;-62
2023/06/22 05:38:16;;;;;;;17.20;10.63;;;;;;;20.15;98.87;101669.56;5031712;28;20045;-65
2023/06/22 05:40:44;;;;;;;14.27;8.95;;;;;;;20.22;98.37;101664.41;5030955;28;20045;-65
2023/06/22 05:43:11;;;;;;;14.27;9.23;;;;;;;20.29;98.04;101670.31;5030843;28;20498;-65
2023/06/22 05:45:39;;;;;;;12.88;9.18;;;;;;;20.34;97.84;101661.09;5031009;28;20053;-65
2023/06/22 05:48:07;;;;;;;16.15;10.57;;;;;;;20.37;98.45;101657.69;5031096;28;20493;-63
2023/06/22 05:50:36;;;;;;;18.48;11.57;;;;;;;20.39;98.71;101658.19;5012841;28;20057;-64
2023/06/22 05:53:06;;;;;;;16.00;9.55;;;;;;;20.37;98.39;101655.75;5011593;28;20144;-64
2023/06/22 05:55:34;;;;;;;13.40;8.75;;;;;;;20.40;98.18;101652.34;5009699;28;20045;-65
2023/06/22 05:58:03;;;;;;;13.50;8.93;;;;;;;20.46;98.26;101653.03;5026481;28;20042;-65
2023/06/22 06:00:31;;;;;;;15.35;9.88;;;;;;;20.49;97.76;101652.38;5015337;28;20033;-65
2023/06/22 06:03:03;;;;;;;14.75;9.35;;;;;;;20.51;97.61;101652.91;5030793;28;20136;-65
2023/06/22 06:05:32;;;;;;;14.23;9.48;;;;;;;20.52;97.92;101665.63;5029008;28;20064;-65
2023/06/22 06:08:01;;;;;;;16.45;10.52;;;;;;;20.52;98.70;101656.50;5029200;28;20049;-66
2023/06/22 06:10:29;;;;;;;16.98;10.50;;;;;;;20.53;98.98;101655.38;5017364;28;20089;-65
2023/06/22 06:12:58;;;;;;;14.55;10.10;;;;;;;20.54;98.97;101659.75;5010955;28;20061;-63
2023/06/22 06:15:26;;;;;;;18.58;10.20;;;;;;;20.54;99.39;101657.81;5011862;28;20116;-66
2023/06/22 06:17:53;;;;;;;15.35;11.23;;;;;;;20.53;100.00;101649.81;5026919;28;20183;-66
2023/06/22 06:20:27;;;;;;;13.98;10.82;;;;;;;20.53;100.00;101644.28;5027735;28;20045;-66
2023/06/22 06:22:56;;;;;;;15.73;10.40;;;;;;;20.53;100.00;101633.22;5034774;28;20501;-65
2023/06/22 06:25:24;;;;;;;14.90;10.93;;;;;;;20.56;100.00;101640.91;5034175;28;20418;-65
2023/06/22 06:27:54;;;;;;;18.90;11.63;;;;;;;20.59;100.00;101635.56;5035006;28;20049;-64
2023/06/22 06:30:22;;;;;;;15.93;12.13;;;;;;;20.64;100.00;101643.75;5021096;28;20124;-62
2023/06/22 06:32:51;;;;;;;18.70;12.57;;;;;;;20.67;100.00;101642.28;5014603;28;20050;-63
2023/06/22 06:35:19;;;;;;;16.75;11.85;;;;;;;20.71;100.00;101637.75;5014636;28;20085;-64
2023/06/22 06:37:49;;;;;;;18.92;11.63;;;;;;;20.76;100.00;101645.94;5015168;28;20581;-63
2023/06/22 06:40:18;;;;;;;15.77;10.77;;;;;;;20.79;99.85;101650.84;5022213;28;20521;-64
2023/06/22 06:42:48;;;;;;;19.63;11.98;;;;;;;20.82;99.62;101655.72;5034430;28;20049;-65
2023/06/22 06:45:25;;;;;;;18.52;11.35;;;;;;;20.83;99.18;101645.50;5032828;28;20097;-64
2023/06/22 06:47:53;;;;;;;18.25;12.68;;;;;;;20.89;98.79;101651.69;5032371;28;20409;-65
2023/06/22 06:50:21;;;;;;;15.35;9.80;;;;;;;20.93;97.95;101644.41;5032242;28;20053;-63
2023/06/22 06:52:50;;;;;;;15.63;10.82;;;;;;;20.98;97.17;101633.19;5049064;28;20057;-64
2023/06/22 06:55:19;;;;;;;16.25;11.27;;;;;;;21.03;97.10;101635.81;5033289;28;20049;-64
2023/06/22 06:57:48;;;;;;;16.63;11.48;;;;;;;21.05;97.44;101636.31;5032051;28;20442;-64
2023/06/22 07:00:16;;;;;;;18.50;12.07;;;;;;;21.08;97.85;101635.66;5031654;28;20194;-58
2023/06/22 07:02:45;;;;;;;18.45;11.07;;;;;;;21.06;97.07;101638.75;5033057;28;20045;-65
2023/06/22 07:05:13;;;;;;;22.88;11.10;;;;;;;21.09;96.00;101637.28;5032249;28;20045;-63
2023/06/22 07:07:44;;;;;;;16.02;11.57;;;;;;;21.12;96.12;101630.28;5015971;28;20469;-63
2023/06/22 07:10:12;;;;;;;17.75;12.20;;;;;;;21.15;95.97;101624.94;5032597;28;20060;-63
2023/06/22 07:12:40;;;;;;;17.77;12.15;;;;;;;21.19;96.57;101625.94;5065227;28;20057;-64
2023/06/22 07:15:09;;;;;;;19.77;11.45;;;;;;;21.21;96.01;101618.13;5033719;28;20053;-65
2023/06/22 07:17:39;;;;;;;15.85;10.68;;;;;;;21.22;95.65;101625.28;5033302;28;20049;-62
2023/06/22 07:20:11;;;;;;;14.40;10.48;;;;;;;21.21;95.67;101623.66;5033048;28;20076;-63
2023/06/22 07:22:41;;;;;;;18.77;12.40;;;;;;;21.27;96.52;101619.59;5033094;28;20057;-62
2023/06/22 07:25:09;;;;;;;15.93;10.98;;;;;;;21.30;94.87;101620.09;5032255;28;20084;-64
2023/06/22 07:27:46;;;;;;;17.05;12.73;;;;;;;21.30;94.64;101620.91;5032849;28;20045;-63
2023/06/22 07:30:13;;;;;;;14.65;10.50;;;;;;;21.30;94.71;101614.53;5013828;28;20490;-63
2023/06/22 07:32:41;;;;;;;20.10;13.75;;;;;;;21.31;94.04;101610.63;5013668;28;20080;-65
2023/06/22 07:35:10;;;;;;;18.25;12.77;;;;;;;21.31;94.19;101607.84;5045624;28;20111;-63
2023/06/22 07:37:38;;;;;;;14.65;11.32;;;;;;;21.32;94.00;101601.19;5013865;28;20050;-64
2023/06/22 07:40:06;;;;;;;14.93;11.82;;;;;;;21.34;93.23;101610.81;5014875;28;20115;-63
2023/06/22 07:42:34;;;;;;;15.52;11.25;;;;;;;21.36;93.53;101608.53;5013581;28;20371;-63
2023/06/22 07:45:04;;;;;;;16.73;12.50;;;;;;;21.39;95.17;101607.06;5014740;28;20096;-64
2023/06/22 07:47:34;;;;;;;19.52;10.43;;;;;;;21.37;94.92;101599.06;5027508;28;20132;-63
2023/06/22 07:50:03;;;;;;;14.90;11.55;;;;;;;21.36;94.60;101597.44;5040805;28;20041;-61
2023/06/22 07:52:32;;;;;;;18.92;12.07;;;;;;;21.37;94.80;101607.38;5049636;28;20055;-62
2023/06/22 07:55:00;;;;;;;16.20;11.43;;;;;;;21.37;94.21;101603.81;5052443;28;20417;-63
2023/06/22 07:57:33;;;;;;;17.13;10.57;;;;;;;21.39;93.84;101595.97;5033894;28;20045;-63
2023/06/22 08:00:04;;;;;;;15.48;10.02;;;;;;;21.45;93.44;101591.94;5034759;28;20041;-63
2023/06/22 08:02:40;;;;;;;16.83;10.77;;;;;;;21.51;93.40;101575.97;5049449;28;20050;-63
2023/06/22 08:05:09;;;;;;;17.08;11.82;;;;;;;21.57;94.23;101575.47;5053405;28;20049;-61
2023/06/22 08:07:48;;;;;;;16.90;11.98;;;;;;;21.60;93.83;101576.78;5041818;28;20528;-64
2023/06/22 08:10:16;;;;;;;20.00;13.05;;;;;;;21.61;93.44;101576.47;5035532;28;20045;-64
2023/06/22 08:12:43;;;;;;;16.63;13.02;;;;;;;21.64;93.91;101563.91;5040994;28;20090;-65
2023/06/22 08:15:11;;;;;;;19.55;13.05;;;;;;;21.69;93.62;101561.81;5056605;28;20049;-63
2023/06/22 08:17:39;;;;;;;18.35;13.23;;;;;;;21.73;92.22;101555.59;5042297;28;20088;-63
2023/06/22 08:20:14;;;;;;;13.88;9.93;;;;;;;21.77;91.09;101545.47;5017614;28;20042;-62
2023/06/22 08:22:42;;;;;;;17.42;12.23;;;;;;;21.78;90.13;101545.16;5016987;28;20060;-64
2023/06/22 08:25:11;;;;;;;19.27;12.95;;;;;;;21.79;89.25;101543.19;5015484;28;20042;-63
2023/06/22 08:27:39;;;;;;;14.88;10.10;;;;;;;21.82;88.16;101531.47;5016551;28;20050;-63
2023/06/22 08:30:10;;;;;;;12.35;8.85;;;;;;;21.83;88.04;101533.88;5016271;28;20053;-64
2023/06/22 08:32:38;;;;;;;16.85;11.90;;;;;;;21.85;87.42;101531.59;5035665;28;20052;-64
2023/06/22 08:35:08;;;;;;;15.88;10.70;;;;;;;21.92;87.38;101536.66;5036987;28;20084;-64
2023/06/22 08:37:36;;;;;;;15.80;10.80;;;;;;;21.95;86.29;101530.44;5034716;28;20049;-64
2023/06/22 08:40:07;;;;;;;16.35;11.48;;;;;;;21.98;84.36;101524.22;5035014;28;20466;-64
2023/06/22 08:42:36;;;;;;;17.63;10.88;;;;;;;22.01;84.64;101522.78;5036006;28;20512;-63
2023/06/22 08:45:04;;;;;;;13.50;9.05;;;;;;;22.04;84.32;101528.47;5016428;28;20095;-65
2023/06/22 08:47:32;;;;;;;16.27;10.60;;;;;;;22.03;82.49;101535.19;5027806;28;20056;-64
2023/06/22 08:50:03;;;;;;;15.57;10.93;;;;;;;22.04;82.35;101531.25;5034328;28;20398;-64
2023/06/22 08:52:31;;;;;;;16.58;10.77;;;;;;;22.06;81.99;101531.75;5019050;28;20060;-63
2023/06/22 08:54:59;;;;;;;17.05;11.00;;;;;;;22.11;81.91;101528.81;5035754;28;20474;-63
2023/06/22 08:57:27;;;;;;;14.13;8.77;;;;;;;22.16;82.25;101525.03;5034196;28;20504;-64
2023/06/22 08:59:58;;;;;;;20.58;11.30;;;;;;;22.21;82.40;101524.91;5036060;28;20053;-63
2023/06/22 09:02:30;;;;;;;15.07;10.05;;;;;;;22.24;82.28;101520.63;5034938;28;20057;-65
2023/06/22 09:04:58;;;;;;;12.82;9.35;;;;;;;22.27;81.14;101526.38;5016751;28;20092;-65
2023/06/22 09:07:26;;;;;;;14.63;9.38;;;;;;;22.27;79.66;101522.75;5015265;28;20120;-66
2023/06/22 09:09:55;;;;;;;14.90;9.73;;;;;;;22.30;79.88;101519.34;5015858;28;20132;-63
2023/06/22 09:12:25;;;;;;;16.25;9.43;;;;;;;22.31;81.29;101515.41;5015687;28;20085;-64
2023/06/22 09:14:53;;;;;;;15.80;11.13;;;;;;;22.31;80.77;101507.88;5030460;28;20100;-63
2023/06/22 09:17:23;;;;;;;16.05;10.07;;;;;;;22.33;80.50;101508.38;5016547;28;20079;-65
2023/06/22 09:19:50;;;;;;;27.13;11.63;;;;;;;22.33;81.12;101510.34;5018824;28;20045;-64
2023/06/22 09:22:18;;;;;;;27.92;12.15;;;;;;;22.32;80.85;101519.78;5032654;28;20049;-64
2023/06/22 09:24:46;;;;;;;16.80;7.78;;;;;;;22.31;80.03;101518.16;5034932;28;20132;-65
2023/06/22 09:27:13;;;;;;;21.92;11.70;;;;;;;22.28;79.25;101516.06;5028036;28;20076;-63
2023/06/22 09:29:41;;;;;;;27.65;11.55;;;;;;;22.26;79.92;101518.34;5015548;28;20128;-63
2023/06/22 09:32:09;;;;;;;18.58;10.48;;;;;;;22.28;79.47;101513.28;5014894;28;20045;-64
2023/06/22 09:34:37;;;;;;;16.75;10.55;;;;;;;22.29;79.73;101509.34;5015552;28;20408;-64
2023/06/22 09:37:05;;;;;;;20.75;10.20;;;;;;;22.29;80.69;101512.13;5016214;28;20124;-63
2023/06/22 09:39:32;;;;;;;25.27;10.60;;;;;;;22.28;80.75;101500.22;5015397;28;20046;-64
2023/06/22 09:42:00;;;;;;;22.30;10.98;;;;;;;22.29;81.18;101499.06;5015132;28;20077;-64
2023/06/22 09:44:28;;;;;;;17.73;9.95;;;;;;;22.30;81.54;101499.91;5015006;28;20351;-64
2023/06/22 09:46:55;;;;;;;14.20;9.82;;;;;;;22.30;82.15;101500.69;5015170;28;20552;-64
2023/06/22 09:49:23;;;;;;;16.00;10.00;;;;;;;22.30;82.16;101494.34;5013224;28;20080;-64
2023/06/22 09:52:11;;;;;;;15.93;9.18;;;;;;;22.30;82.58;101499.91;5014602;28;20402;-64
2023/06/22 09:54:39;;;;;;;13.60;9.00;;;;;;;22.30;82.89;101503.47;5014917;28;20380;-65
2023/06/22 09:57:06;;;;;;;15.07;9.73;;;;;;;22.29;83.82;101501.03;5015644;28;20048;-63
2023/06/22 09:59:34;;;;;;;14.20;9.57;;;;;;;22.30;83.56;101503.47;5015002;28;20053;-63
2023/06/22 10:02:02;;;;;;;15.40;9.40;;;;;;;22.29;83.17;101499.06;5014924;28;20045;-64
2023/06/22 10:04:29;;;;;;;25.10;10.65;;;;;;;22.28;83.92;101488.31;5014796;28;20486;-64
2023/06/22 10:06:58;;;;;;;20.98;9.68;;;;;;;22.29;83.86;101495.47;5023312;28;20046;-64
2023/06/22 10:09:29;;;;;;;19.52;9.07;;;;;;;22.30;82.12;101491.56;5034313;28;20494;-64
2023/06/22 10:11:57;;;;;;;26.02;9.93;;;;;;;22.29;82.49;101490.72;5034325;28;20157;-65
2023/06/22 10:14:27;;;;;;;23.00;9.52;;;;;;;22.29;82.36;101501.03;5034358;28;20060;-63
2023/06/22 10:16:54;;;;;;;30.27;11.85;;;;;;;22.31;82.11;101493.19;5025881;28;20493;-64
2023/06/22 10:19:26;;;;;;;31.38;11.63;;;;;;;22.32;83.57;101494.81;5014440;28;20081;-63
2023/06/22 10:21:55;;;;;;;29.58;11.95;;;;;;;22.30;83.99;101486.81;5013624;28;20120;-62
2023/06/22 10:24:22;;;;;;;30.08;12.15;;;;;;;22.29;84.74;101484.38;5013147;28;20054;-63
2023/06/22 10:26:50;;;;;;;18.42;10.80;;;;;;;22.30;85.36;101480.47;5023124;28;20059;-63
2023/06/22 10:29:18;;;;;;;16.63;10.48;;;;;;;22.30;85.86;101474.91;5034130;28;20068;-64
2023/06/22 10:31:46;;;;;;;24.83;11.70;;;;;;;22.30;86.68;101480.47;5033869;28;20048;-62
2023/06/22 10:34:13;;;;;;;18.88;11.15;;;;;;;22.28;86.82;101469.69;5034111;28;20124;-63
2023/06/22 10:36:41;;;;;;;24.60;12.25;;;;;;;22.29;87.85;101473.25;5028466;28;20046;-65
2023/06/22 10:39:09;;;;;;;17.85;10.80;;;;;;;22.25;86.62;101456.47;5022623;28;20124;-64
2023/06/22 10:41:36;;;;;;;17.38;11.80;;;;;;;22.25;86.30;101461.22;5032530;28;20084;-64
2023/06/22 10:44:04;;;;;;;14.93;11.13;;;;;;;22.23;86.41;101458.75;5012717;28;20125;-64
2023/06/22 10:46:32;;;;;;;16.35;11.23;;;;;;;22.20;85.05;101464.97;5027878;28;20497;-64
2023/06/22 10:49:03;;;;;;;13.75;10.00;;;;;;;22.22;85.23;101472.97;4808594;28;10000594;-64
2023/06/22 10:51:32;;;;;;;17.70;11.80;;;;;;;22.23;85.32;101489.28;5011535;28;20731;-66
2023/06/22 10:53:59;;;;;;;13.93;10.40;;;;;;;22.22;84.16;101482.09;5010725;28;20081;-64
2023/06/22 10:56:27;;;;;;;15.32;10.70;;;;;;;22.23;84.67;101483.75;5011774;28;20052;-64
2023/06/22 10:58:55;;;;;;;18.13;11.73;;;;;;;22.23;85.15;101474.59;5043270;28;20132;-66
2023/06/22 11:01:22;;;;;;;17.60;12.52;;;;;;;22.23;86.25;101488.50;5010974;28;20137;-64
2023/06/22 11:04:02;;;;;;;15.70;11.68;;;;;;;22.22;87.96;101495.16;5029985;28;20052;-65
2023/06/22 11:06:30;;;;;;;17.13;12.52;;;;;;;22.21;89.05;101493.53;5029887;28;20103;-65
2023/06/22 11:08:58;;;;;;;16.30;11.25;;;;;;;22.17;89.57;101490.56;5027298;28;20067;-64
2023/06/22 11:11:33;;;;;;;17.07;11.27;;;;;;;22.16;89.56;101491.72;5028780;28;20685;-62
2023/06/22 11:14:01;;;;;;;21.08;12.65;;;;;;;22.16;89.14;101500.06;5029720;28;20100;-64
2023/06/22 11:16:29;;;;;;;17.25;10.27;;;;;;;22.16;89.37;101502.84;5030335;28;20076;-63
2023/06/22 11:18:56;;;;;;;17.90;11.20;;;;;;;22.17;88.89;101510.00;5030670;28;20084;-64
2023/06/22 11:21:24;;;;;;;17.95;10.93;;;;;;;22.17;89.12;101511.97;5029574;28;20049;-65
2023/06/22 11:23:52;;;;;;;18.48;10.68;;;;;;;22.17;90.09;101514.75;5027887;28;20162;-64